sensor_id;sensor_type;location;lat;lon;timestamp;P1;durP1;ratioP1;P2;durP2;ratioP2
35245;SDS011;21379;50.962;6.960;2023-04-03T00:00:47;3.40;;;1.80;;
35245;SDS011;21379;50.962;6.960;2023-04-03T00:03:15;4.53;;;1.85;;
35245;SDS011;21379;50.962;6.960;2023-04-03T00:05:42;3.22;;;2.83;;
35245;SDS011;21379;50.962;6.960;2023-04-03T00:08:09;4.50;;;1.38;;
35245;SDS011;21379;50.962;6.960;2023-04-03T00:10:37;4.47;;;2.92;;
35245;SDS011;21379;50.962;6.960;2023-04-03T00:13:04;3.40;;;2.20;;
35245;SDS011;21379;50.962;6.960;2023-04-03T00:15:32;2.92;;;1.48;;
35245;SDS011;21379;50.962;6.960;2023-04-03T00:18:01;5.72;;;1.80;;
35245;SDS011;21379;50.962;6.960;2023-04-03T00:20:28;2.15;;;1.95;;
35245;SDS011;21379;50.962;6.960;2023-04-03T00:22:55;4.65;;;2.08;;
35245;SDS011;21379;50.962;6.960;2023-04-03T00:25:22;2.67;;;1.95;;
35245;SDS011;21379;50.962;6.960;2023-04-03T00:27:50;2.88;;;1.63;;
35245;SDS011;21379;50.962;6.960;2023-04-03T00:30:18;4.47;;;2.28;;
35245;SDS011;21379;50.962;6.960;2023-04-03T00:32:47;8.70;;;2.58;;
35245;SDS011;21379;50.962;6.960;2023-04-03T00:35:14;2.08;;;1.60;;
35245;SDS011;21379;50.962;6.960;2023-04-03T00:37:41;1.98;;;1.77;;
35245;SDS011;21379;50.962;6.960;2023-04-03T00:40:08;3.92;;;2.10;;
35245;SDS011;21379;50.962;6.960;2023-04-03T00:42:36;4.10;;;2.47;;
35245;SDS011;21379;50.962;6.960;2023-04-03T00:45:28;5.88;;;1.60;;
35245;SDS011;21379;50.962;6.960;2023-04-03T00:48:05;3.88;;;2.08;;
35245;SDS011;21379;50.962;6.960;2023-04-03T00:50:35;2.78;;;1.67;;
35245;SDS011;21379;50.962;6.960;2023-04-03T00:53:04;2.65;;;1.52;;
35245;SDS011;21379;50.962;6.960;2023-04-03T00:55:33;3.88;;;1.60;;
35245;SDS011;21379;50.962;6.960;2023-04-03T00:58:02;2.58;;;2.17;;
35245;SDS011;21379;50.962;6.960;2023-04-03T01:00:31;5.85;;;2.00;;
35245;SDS011;21379;50.962;6.960;2023-04-03T01:02:58;2.97;;;2.08;;
35245;SDS011;21379;50.962;6.960;2023-04-03T01:05:26;4.18;;;1.92;;
35245;SDS011;21379;50.962;6.960;2023-04-03T01:07:53;5.28;;;2.00;;
35245;SDS011;21379;50.962;6.960;2023-04-03T01:10:21;7.80;;;2.78;;
35245;SDS011;21379;50.962;6.960;2023-04-03T01:12:48;10.18;;;1.83;;
35245;SDS011;21379;50.962;6.960;2023-04-03T01:15:17;3.85;;;2.15;;
35245;SDS011;21379;50.962;6.960;2023-04-03T01:17:49;4.15;;;2.17;;
35245;SDS011;21379;50.962;6.960;2023-04-03T01:20:31;2.85;;;1.63;;
35245;SDS011;21379;50.962;6.960;2023-04-03T01:23:12;2.28;;;1.75;;
35245;SDS011;21379;50.962;6.960;2023-04-03T01:25:56;2.33;;;1.63;;
35245;SDS011;21379;50.962;6.960;2023-04-03T01:28:24;4.43;;;1.52;;
35245;SDS011;21379;50.962;6.960;2023-04-03T01:30:55;3.25;;;2.45;;
35245;SDS011;21379;50.962;6.960;2023-04-03T01:33:32;6.15;;;1.98;;
35245;SDS011;21379;50.962;6.960;2023-04-03T01:36:00;13.10;;;2.13;;
35245;SDS011;21379;50.962;6.960;2023-04-03T01:38:28;3.38;;;1.95;;
35245;SDS011;21379;50.962;6.960;2023-04-03T01:40:55;2.63;;;1.67;;
35245;SDS011;21379;50.962;6.960;2023-04-03T01:43:23;5.65;;;2.13;;
35245;SDS011;21379;50.962;6.960;2023-04-03T01:45:50;3.60;;;2.47;;
35245;SDS011;21379;50.962;6.960;2023-04-03T01:48:19;4.10;;;1.90;;
35245;SDS011;21379;50.962;6.960;2023-04-03T01:50:47;2.88;;;1.77;;
35245;SDS011;21379;50.962;6.960;2023-04-03T01:53:14;9.25;;;1.98;;
35245;SDS011;21379;50.962;6.960;2023-04-03T01:55:41;2.33;;;1.83;;
35245;SDS011;21379;50.962;6.960;2023-04-03T01:58:08;2.85;;;1.92;;
35245;SDS011;21379;50.962;6.960;2023-04-03T02:00:35;6.15;;;2.55;;
35245;SDS011;21379;50.962;6.960;2023-04-03T02:03:02;3.42;;;2.03;;
35245;SDS011;21379;50.962;6.960;2023-04-03T02:05:29;1.52;;;1.35;;
35245;SDS011;21379;50.962;6.960;2023-04-03T02:07:58;3.20;;;1.63;;
35245;SDS011;21379;50.962;6.960;2023-04-03T02:10:25;3.90;;;1.92;;
35245;SDS011;21379;50.962;6.960;2023-04-03T02:12:52;2.90;;;1.80;;
35245;SDS011;21379;50.962;6.960;2023-04-03T02:15:19;2.72;;;1.55;;
35245;SDS011;21379;50.962;6.960;2023-04-03T02:17:46;2.00;;;1.80;;
35245;SDS011;21379;50.962;6.960;2023-04-03T02:20:13;4.68;;;1.65;;
35245;SDS011;21379;50.962;6.960;2023-04-03T02:22:40;3.70;;;2.05;;
35245;SDS011;21379;50.962;6.960;2023-04-03T02:25:09;3.97;;;1.92;;
35245;SDS011;21379;50.962;6.960;2023-04-03T02:27:36;4.28;;;2.40;;
35245;SDS011;21379;50.962;6.960;2023-04-03T02:30:03;5.93;;;2.17;;
35245;SDS011;21379;50.962;6.960;2023-04-03T02:32:31;2.67;;;1.92;;
35245;SDS011;21379;50.962;6.960;2023-04-03T02:34:59;3.22;;;1.77;;
35245;SDS011;21379;50.962;6.960;2023-04-03T02:37:26;2.80;;;2.13;;
35245;SDS011;21379;50.962;6.960;2023-04-03T02:39:54;3.15;;;1.70;;
35245;SDS011;21379;50.962;6.960;2023-04-03T02:42:22;4.95;;;1.77;;
35245;SDS011;21379;50.962;6.960;2023-04-03T02:44:50;4.20;;;2.38;;
35245;SDS011;21379;50.962;6.960;2023-04-03T02:47:17;5.18;;;1.67;;
35245;SDS011;21379;50.962;6.960;2023-04-03T02:49:44;3.80;;;1.95;;
35245;SDS011;21379;50.962;6.960;2023-04-03T02:52:11;8.75;;;1.90;;
35245;SDS011;21379;50.962;6.960;2023-04-03T02:54:38;6.50;;;2.60;;
35245;SDS011;21379;50.962;6.960;2023-04-03T02:57:07;6.00;;;1.83;;
35245;SDS011;21379;50.962;6.960;2023-04-03T02:59:36;2.20;;;1.33;;
35245;SDS011;21379;50.962;6.960;2023-04-03T03:02:05;3.40;;;1.60;;
35245;SDS011;21379;50.962;6.960;2023-04-03T03:04:33;5.32;;;2.38;;
35245;SDS011;21379;50.962;6.960;2023-04-03T03:07:00;4.30;;;2.90;;
35245;SDS011;21379;50.962;6.960;2023-04-03T03:09:27;4.20;;;2.08;;
35245;SDS011;21379;50.962;6.960;2023-04-03T03:11:54;8.23;;;2.40;;
35245;SDS011;21379;50.962;6.960;2023-04-03T03:14:21;2.55;;;1.75;;
35245;SDS011;21379;50.962;6.960;2023-04-03T03:16:50;3.17;;;2.17;;
35245;SDS011;21379;50.962;6.960;2023-04-03T03:19:17;3.33;;;2.15;;
35245;SDS011;21379;50.962;6.960;2023-04-03T03:21:43;5.03;;;1.85;;
35245;SDS011;21379;50.962;6.960;2023-04-03T03:24:10;4.07;;;1.98;;
35245;SDS011;21379;50.962;6.960;2023-04-03T03:26:38;2.70;;;1.70;;
35245;SDS011;21379;50.962;6.960;2023-04-03T03:29:05;4.00;;;2.40;;
35245;SDS011;21379;50.962;6.960;2023-04-03T03:31:32;3.60;;;1.85;;
35245;SDS011;21379;50.962;6.960;2023-04-03T03:34:00;2.40;;;1.75;;
35245;SDS011;21379;50.962;6.960;2023-04-03T03:36:27;2.90;;;1.98;;
35245;SDS011;21379;50.962;6.960;2023-04-03T03:38:54;7.70;;;1.92;;
35245;SDS011;21379;50.962;6.960;2023-04-03T03:41:21;3.53;;;1.90;;
35245;SDS011;21379;50.962;6.960;2023-04-03T03:43:48;3.58;;;1.40;;
35245;SDS011;21379;50.962;6.960;2023-04-03T03:46:15;5.65;;;2.53;;
35245;SDS011;21379;50.962;6.960;2023-04-03T03:48:43;3.47;;;2.00;;
35245;SDS011;21379;50.962;6.960;2023-04-03T03:51:11;2.58;;;1.38;;
35245;SDS011;21379;50.962;6.960;2023-04-03T03:53:38;1.98;;;1.75;;
35245;SDS011;21379;50.962;6.960;2023-04-03T03:56:09;4.68;;;2.20;;
35245;SDS011;21379;50.962;6.960;2023-04-03T03:58:39;2.75;;;1.30;;
35245;SDS011;21379;50.962;6.960;2023-04-03T04:01:07;7.10;;;1.67;;
35245;SDS011;21379;50.962;6.960;2023-04-03T04:03:39;3.15;;;1.63;;
35245;SDS011;21379;50.962;6.960;2023-04-03T04:06:08;1.55;;;1.35;;
35245;SDS011;21379;50.962;6.960;2023-04-03T04:08:36;1.33;;;1.23;;
35245;SDS011;21379;50.962;6.960;2023-04-03T04:11:05;2.42;;;1.48;;
35245;SDS011;21379;50.962;6.960;2023-04-03T04:13:33;2.63;;;1.45;;
35245;SDS011;21379;50.962;6.960;2023-04-03T04:16:00;5.50;;;1.83;;
35245;SDS011;21379;50.962;6.960;2023-04-03T04:18:28;2.45;;;1.50;;
35245;SDS011;21379;50.962;6.960;2023-04-03T04:20:55;1.35;;;0.95;;
35245;SDS011;21379;50.962;6.960;2023-04-03T04:23:23;1.73;;;1.25;;
35245;SDS011;21379;50.962;6.960;2023-04-03T04:25:52;14.05;;;2.40;;
35245;SDS011;21379;50.962;6.960;2023-04-03T04:28:19;2.75;;;1.63;;
35245;SDS011;21379;50.962;6.960;2023-04-03T04:30:49;2.47;;;1.00;;
35245;SDS011;21379;50.962;6.960;2023-04-03T04:33:17;1.20;;;1.02;;
35245;SDS011;21379;50.962;6.960;2023-04-03T04:35:46;2.30;;;1.73;;
35245;SDS011;21379;50.962;6.960;2023-04-03T04:38:14;2.33;;;1.15;;
35245;SDS011;21379;50.962;6.960;2023-04-03T04:40:41;2.83;;;1.75;;
35245;SDS011;21379;50.962;6.960;2023-04-03T04:43:10;2.03;;;1.17;;
35245;SDS011;21379;50.962;6.960;2023-04-03T04:45:40;3.05;;;1.42;;
35245;SDS011;21379;50.962;6.960;2023-04-03T04:48:08;4.88;;;1.02;;
35245;SDS011;21379;50.962;6.960;2023-04-03T04:50:35;2.40;;;1.73;;
35245;SDS011;21379;50.962;6.960;2023-04-03T04:53:02;4.22;;;1.52;;
35245;SDS011;21379;50.962;6.960;2023-04-03T04:55:30;1.65;;;1.42;;
35245;SDS011;21379;50.962;6.960;2023-04-03T04:57:57;2.10;;;1.20;;
35245;SDS011;21379;50.962;6.960;2023-04-03T05:00:25;4.78;;;1.10;;
35245;SDS011;21379;50.962;6.960;2023-04-03T05:02:55;17.17;;;1.33;;
35245;SDS011;21379;50.962;6.960;2023-04-03T05:05:21;1.40;;;1.15;;
35245;SDS011;21379;50.962;6.960;2023-04-03T05:07:48;1.35;;;1.10;;
35245;SDS011;21379;50.962;6.960;2023-04-03T05:10:16;1.80;;;1.63;;
35245;SDS011;21379;50.962;6.960;2023-04-03T05:12:43;2.63;;;0.90;;
35245;SDS011;21379;50.962;6.960;2023-04-03T05:15:10;1.73;;;1.20;;
35245;SDS011;21379;50.962;6.960;2023-04-03T05:17:39;1.88;;;0.95;;
35245;SDS011;21379;50.962;6.960;2023-04-03T05:20:10;2.80;;;1.20;;
35245;SDS011;21379;50.962;6.960;2023-04-03T05:22:38;1.88;;;1.40;;
35245;SDS011;21379;50.962;6.960;2023-04-03T05:25:08;1.25;;;1.02;;
35245;SDS011;21379;50.962;6.960;2023-04-03T05:27:36;1.35;;;1.25;;
35245;SDS011;21379;50.962;6.960;2023-04-03T05:30:03;2.08;;;1.05;;
35245;SDS011;21379;50.962;6.960;2023-04-03T05:32:32;4.88;;;1.35;;
35245;SDS011;21379;50.962;6.960;2023-04-03T05:35:12;1.20;;;0.90;;
35245;SDS011;21379;50.962;6.960;2023-04-03T05:37:40;4.88;;;1.63;;
35245;SDS011;21379;50.962;6.960;2023-04-03T05:40:08;2.25;;;1.17;;
35245;SDS011;21379;50.962;6.960;2023-04-03T05:42:38;0.90;;;0.82;;
35245;SDS011;21379;50.962;6.960;2023-04-03T05:45:05;5.18;;;1.42;;
35245;SDS011;21379;50.962;6.960;2023-04-03T05:47:33;2.72;;;1.08;;
35245;SDS011;21379;50.962;6.960;2023-04-03T05:50:00;3.42;;;1.25;;
35245;SDS011;21379;50.962;6.960;2023-04-03T05:52:30;4.35;;;1.15;;
35245;SDS011;21379;50.962;6.960;2023-04-03T05:54:59;1.58;;;1.35;;
35245;SDS011;21379;50.962;6.960;2023-04-03T05:57:28;6.95;;;1.00;;
35245;SDS011;21379;50.962;6.960;2023-04-03T05:59:55;7.47;;;1.33;;
35245;SDS011;21379;50.962;6.960;2023-04-03T06:02:24;2.17;;;1.50;;
35245;SDS011;21379;50.962;6.960;2023-04-03T06:04:51;3.72;;;1.80;;
35245;SDS011;21379;50.962;6.960;2023-04-03T06:07:19;3.33;;;1.08;;
35245;SDS011;21379;50.962;6.960;2023-04-03T06:09:50;1.88;;;1.02;;
35245;SDS011;21379;50.962;6.960;2023-04-03T06:12:17;2.67;;;1.17;;
35245;SDS011;21379;50.962;6.960;2023-04-03T06:14:45;5.13;;;1.52;;
35245;SDS011;21379;50.962;6.960;2023-04-03T06:17:13;1.88;;;1.13;;
35245;SDS011;21379;50.962;6.960;2023-04-03T06:19:40;1.17;;;1.05;;
35245;SDS011;21379;50.962;6.960;2023-04-03T06:22:08;7.55;;;1.65;;
35245;SDS011;21379;50.962;6.960;2023-04-03T06:24:36;7.53;;;2.10;;
35245;SDS011;21379;50.962;6.960;2023-04-03T06:27:04;2.70;;;1.05;;
35245;SDS011;21379;50.962;6.960;2023-04-03T06:29:31;6.68;;;1.00;;
35245;SDS011;21379;50.962;6.960;2023-04-03T06:31:58;2.70;;;1.63;;
35245;SDS011;21379;50.962;6.960;2023-04-03T06:34:25;4.25;;;1.38;;
35245;SDS011;21379;50.962;6.960;2023-04-03T06:36:52;5.70;;;1.00;;
35245;SDS011;21379;50.962;6.960;2023-04-03T06:39:20;3.85;;;1.50;;
35245;SDS011;21379;50.962;6.960;2023-04-03T06:41:48;5.30;;;1.80;;
35245;SDS011;21379;50.962;6.960;2023-04-03T06:44:17;3.28;;;0.93;;
35245;SDS011;21379;50.962;6.960;2023-04-03T06:46:45;1.65;;;1.05;;
35245;SDS011;21379;50.962;6.960;2023-04-03T06:49:12;3.47;;;1.08;;
35245;SDS011;21379;50.962;6.960;2023-04-03T06:51:40;3.33;;;1.00;;
35245;SDS011;21379;50.962;6.960;2023-04-03T06:54:07;1.15;;;0.75;;
35245;SDS011;21379;50.962;6.960;2023-04-03T06:56:34;4.45;;;1.13;;
35245;SDS011;21379;50.962;6.960;2023-04-03T06:59:02;1.83;;;1.02;;
35245;SDS011;21379;50.962;6.960;2023-04-03T07:01:30;3.78;;;1.50;;
35245;SDS011;21379;50.962;6.960;2023-04-03T07:03:57;2.25;;;0.98;;
35245;SDS011;21379;50.962;6.960;2023-04-03T07:06:25;1.90;;;0.82;;
35245;SDS011;21379;50.962;6.960;2023-04-03T07:08:52;7.28;;;2.08;;
35245;SDS011;21379;50.962;6.960;2023-04-03T07:11:20;3.20;;;1.25;;
35245;SDS011;21379;50.962;6.960;2023-04-03T07:13:47;9.57;;;1.05;;
35245;SDS011;21379;50.962;6.960;2023-04-03T07:16:14;2.28;;;0.90;;
35245;SDS011;21379;50.962;6.960;2023-04-03T07:18:42;2.40;;;0.90;;
35245;SDS011;21379;50.962;6.960;2023-04-03T07:21:09;0.77;;;0.77;;
35245;SDS011;21379;50.962;6.960;2023-04-03T07:23:36;1.90;;;0.85;;
35245;SDS011;21379;50.962;6.960;2023-04-03T07:26:04;2.15;;;1.13;;
35245;SDS011;21379;50.962;6.960;2023-04-03T07:28:31;0.68;;;0.60;;
35245;SDS011;21379;50.962;6.960;2023-04-03T07:30:59;2.30;;;1.00;;
35245;SDS011;21379;50.962;6.960;2023-04-03T07:33:28;0.50;;;0.50;;
35245;SDS011;21379;50.962;6.960;2023-04-03T07:35:57;2.22;;;0.82;;
35245;SDS011;21379;50.962;6.960;2023-04-03T07:38:25;0.73;;;0.43;;
35245;SDS011;21379;50.962;6.960;2023-04-03T07:40:52;2.85;;;1.05;;
35245;SDS011;21379;50.962;6.960;2023-04-03T07:43:20;4.05;;;0.73;;
35245;SDS011;21379;50.962;6.960;2023-04-03T07:45:49;0.95;;;0.50;;
35245;SDS011;21379;50.962;6.960;2023-04-03T07:48:16;2.00;;;0.55;;
35245;SDS011;21379;50.962;6.960;2023-04-03T07:50:44;3.30;;;0.68;;
35245;SDS011;21379;50.962;6.960;2023-04-03T07:53:13;1.45;;;0.52;;
35245;SDS011;21379;50.962;6.960;2023-04-03T07:55:40;3.58;;;1.02;;
35245;SDS011;21379;50.962;6.960;2023-04-03T07:58:09;2.92;;;0.88;;
35245;SDS011;21379;50.962;6.960;2023-04-03T08:00:36;7.28;;;0.98;;
35245;SDS011;21379;50.962;6.960;2023-04-03T08:03:03;2.80;;;0.70;;
35245;SDS011;21379;50.962;6.960;2023-04-03T08:05:31;2.42;;;0.50;;
35245;SDS011;21379;50.962;6.960;2023-04-03T08:07:58;2.00;;;0.80;;
35245;SDS011;21379;50.962;6.960;2023-04-03T08:10:26;0.85;;;0.55;;
35245;SDS011;21379;50.962;6.960;2023-04-03T08:12:55;2.08;;;0.70;;
35245;SDS011;21379;50.962;6.960;2023-04-03T08:15:22;3.45;;;1.10;;
35245;SDS011;21379;50.962;6.960;2023-04-03T08:17:49;4.28;;;1.00;;
35245;SDS011;21379;50.962;6.960;2023-04-03T08:20:17;2.63;;;0.63;;
35245;SDS011;21379;50.962;6.960;2023-04-03T08:22:44;4.22;;;0.60;;
35245;SDS011;21379;50.962;6.960;2023-04-03T08:25:11;3.03;;;0.70;;
35245;SDS011;21379;50.962;6.960;2023-04-03T08:27:40;5.05;;;1.45;;
35245;SDS011;21379;50.962;6.960;2023-04-03T08:30:07;1.33;;;0.68;;
35245;SDS011;21379;50.962;6.960;2023-04-03T08:32:35;1.48;;;0.73;;
35245;SDS011;21379;50.962;6.960;2023-04-03T08:35:02;5.93;;;0.68;;
35245;SDS011;21379;50.962;6.960;2023-04-03T08:37:29;2.10;;;0.70;;
35245;SDS011;21379;50.962;6.960;2023-04-03T08:39:56;3.45;;;0.60;;
35245;SDS011;21379;50.962;6.960;2023-04-03T08:42:29;2.10;;;1.02;;
35245;SDS011;21379;50.962;6.960;2023-04-03T08:45:07;6.82;;;1.45;;
35245;SDS011;21379;50.962;6.960;2023-04-03T08:47:38;1.20;;;0.43;;
35245;SDS011;21379;50.962;6.960;2023-04-03T08:50:11;1.33;;;0.73;;
35245;SDS011;21379;50.962;6.960;2023-04-03T08:52:42;0.70;;;0.47;;
35245;SDS011;21379;50.962;6.960;2023-04-03T08:55:14;0.98;;;0.47;;
35245;SDS011;21379;50.962;6.960;2023-04-03T08:57:47;1.52;;;0.52;;
35245;SDS011;21379;50.962;6.960;2023-04-03T09:00:18;5.80;;;0.60;;
35245;SDS011;21379;50.962;6.960;2023-04-03T09:02:47;1.75;;;0.73;;
35245;SDS011;21379;50.962;6.960;2023-04-03T09:05:16;4.78;;;1.52;;
35245;SDS011;21379;50.962;6.960;2023-04-03T09:07:46;2.28;;;0.93;;
35245;SDS011;21379;50.962;6.960;2023-04-03T09:10:23;1.75;;;0.70;;
35245;SDS011;21379;50.962;6.960;2023-04-03T09:12:57;1.73;;;0.57;;
35245;SDS011;21379;50.962;6.960;2023-04-03T09:15:31;1.60;;;0.88;;
35245;SDS011;21379;50.962;6.960;2023-04-03T09:18:00;4.30;;;0.82;;
35245;SDS011;21379;50.962;6.960;2023-04-03T09:20:33;1.55;;;0.65;;
35245;SDS011;21379;50.962;6.960;2023-04-03T09:25:58;2.15;;;0.65;;
35245;SDS011;21379;50.962;6.960;2023-04-03T09:28:30;2.00;;;0.70;;
35245;SDS011;21379;50.962;6.960;2023-04-03T09:31:01;0.57;;;0.57;;
35245;SDS011;21379;50.962;6.960;2023-04-03T09:33:40;1.27;;;0.52;;
35245;SDS011;21379;50.962;6.960;2023-04-03T09:36:07;5.18;;;0.55;;
35245;SDS011;21379;50.962;6.960;2023-04-03T09:38:34;0.68;;;0.50;;
35245;SDS011;21379;50.962;6.960;2023-04-03T09:41:04;2.00;;;0.50;;
35245;SDS011;21379;50.962;6.960;2023-04-03T09:43:33;5.10;;;0.80;;
35245;SDS011;21379;50.962;6.960;2023-04-03T09:46:18;0.65;;;0.50;;
35245;SDS011;21379;50.962;6.960;2023-04-03T09:48:56;2.47;;;0.40;;
35245;SDS011;21379;50.962;6.960;2023-04-03T09:51:25;1.25;;;0.32;;
35245;SDS011;21379;50.962;6.960;2023-04-03T09:53:53;0.88;;;0.25;;
35245;SDS011;21379;50.962;6.960;2023-04-03T09:56:23;0.38;;;0.28;;
35245;SDS011;21379;50.962;6.960;2023-04-03T09:58:52;0.68;;;0.50;;
35245;SDS011;21379;50.962;6.960;2023-04-03T10:01:36;2.42;;;0.77;;
35245;SDS011;21379;50.962;6.960;2023-04-03T10:04:06;3.40;;;0.57;;
35245;SDS011;21379;50.962;6.960;2023-04-03T10:06:36;0.32;;;0.30;;
35245;SDS011;21379;50.962;6.960;2023-04-03T10:09:15;1.65;;;0.50;;
35245;SDS011;21379;50.962;6.960;2023-04-03T10:11:59;0.93;;;0.45;;
35245;SDS011;21379;50.962;6.960;2023-04-03T10:14:30;1.23;;;0.50;;
35245;SDS011;21379;50.962;6.960;2023-04-03T10:17:01;0.80;;;0.30;;
35245;SDS011;21379;50.962;6.960;2023-04-03T10:19:38;1.23;;;0.32;;
35245;SDS011;21379;50.962;6.960;2023-04-03T10:22:11;0.75;;;0.40;;
35245;SDS011;21379;50.962;6.960;2023-04-03T10:24:47;0.82;;;0.50;;
35245;SDS011;21379;50.962;6.960;2023-04-03T10:27:21;1.88;;;0.68;;
35245;SDS011;21379;50.962;6.960;2023-04-03T10:29:59;1.83;;;0.68;;
35245;SDS011;21379;50.962;6.960;2023-04-03T10:32:44;0.75;;;0.50;;
35245;SDS011;21379;50.962;6.960;2023-04-03T10:35:21;2.17;;;0.38;;
35245;SDS011;21379;50.962;6.960;2023-04-03T10:37:59;0.68;;;0.30;;
35245;SDS011;21379;50.962;6.960;2023-04-03T10:40:32;1.05;;;0.30;;
35245;SDS011;21379;50.962;6.960;2023-04-03T10:43:08;1.70;;;0.50;;
35245;SDS011;21379;50.962;6.960;2023-04-03T10:45:52;3.20;;;1.20;;
35245;SDS011;21379;50.962;6.960;2023-04-03T10:48:31;2.80;;;0.52;;
35245;SDS011;21379;50.962;6.960;2023-04-03T10:51:08;0.90;;;0.30;;
35245;SDS011;21379;50.962;6.960;2023-04-03T10:53:48;3.53;;;1.30;;
35245;SDS011;21379;50.962;6.960;2023-04-03T10:56:24;2.58;;;0.63;;
35245;SDS011;21379;50.962;6.960;2023-04-03T10:58:57;1.13;;;0.50;;
35245;SDS011;21379;50.962;6.960;2023-04-03T11:01:30;3.28;;;0.40;;
35245;SDS011;21379;50.962;6.960;2023-04-03T11:04:00;1.25;;;0.30;;
35245;SDS011;21379;50.962;6.960;2023-04-03T11:06:31;2.13;;;0.50;;
35245;SDS011;21379;50.962;6.960;2023-04-03T11:09:04;1.45;;;0.30;;
35245;SDS011;21379;50.962;6.960;2023-04-03T11:11:37;1.65;;;0.28;;
35245;SDS011;21379;50.962;6.960;2023-04-03T11:14:09;0.30;;;0.30;;
35245;SDS011;21379;50.962;6.960;2023-04-03T11:16:42;0.82;;;0.40;;
35245;SDS011;21379;50.962;6.960;2023-04-03T11:19:15;1.17;;;0.52;;
35245;SDS011;21379;50.962;6.960;2023-04-03T11:21:50;2.00;;;0.20;;
35245;SDS011;21379;50.962;6.960;2023-04-03T11:24:22;0.40;;;0.20;;
35245;SDS011;21379;50.962;6.960;2023-04-03T11:26:51;1.45;;;0.40;;
35245;SDS011;21379;50.962;6.960;2023-04-03T11:29:22;2.40;;;0.30;;
35245;SDS011;21379;50.962;6.960;2023-04-03T11:31:58;3.60;;;0.63;;
35245;SDS011;21379;50.962;6.960;2023-04-03T11:34:37;0.25;;;0.25;;
35245;SDS011;21379;50.962;6.960;2023-04-03T11:37:11;0.30;;;0.30;;
35245;SDS011;21379;50.962;6.960;2023-04-03T11:39:47;2.70;;;0.45;;
35245;SDS011;21379;50.962;6.960;2023-04-03T11:42:23;3.80;;;0.40;;
35245;SDS011;21379;50.962;6.960;2023-04-03T11:47:50;3.72;;;1.17;;
35245;SDS011;21379;50.962;6.960;2023-04-03T11:56:26;3.75;;;0.73;;
35245;SDS011;21379;50.962;6.960;2023-04-03T11:59:15;0.55;;;0.45;;
35245;SDS011;21379;50.962;6.960;2023-04-03T12:01:52;1.40;;;1.30;;
35245;SDS011;21379;50.962;6.960;2023-04-03T12:04:21;1.02;;;0.50;;
35245;SDS011;21379;50.962;6.960;2023-04-03T12:12:45;0.20;;;0.20;;
35245;SDS011;21379;50.962;6.960;2023-04-03T12:18:37;4.03;;;0.25;;
35245;SDS011;21379;50.962;6.960;2023-04-03T12:21:10;0.40;;;0.28;;
35245;SDS011;21379;50.962;6.960;2023-04-03T12:26:26;1.80;;;0.82;;
35245;SDS011;21379;50.962;6.960;2023-04-03T12:28:57;1.02;;;0.20;;
35245;SDS011;21379;50.962;6.960;2023-04-03T12:31:25;0.88;;;0.30;;
35245;SDS011;21379;50.962;6.960;2023-04-03T12:34:07;1.30;;;0.68;;
35245;SDS011;21379;50.962;6.960;2023-04-03T12:36:49;3.03;;;1.02;;
35245;SDS011;21379;50.962;6.960;2023-04-03T12:39:33;1.63;;;0.47;;
35245;SDS011;21379;50.962;6.960;2023-04-03T12:42:15;1.45;;;0.40;;
35245;SDS011;21379;50.962;6.960;2023-04-03T12:44:53;0.30;;;0.20;;
35245;SDS011;21379;50.962;6.960;2023-04-03T12:47:28;1.35;;;0.43;;
35245;SDS011;21379;50.962;6.960;2023-04-03T12:49:58;0.73;;;0.30;;
35245;SDS011;21379;50.962;6.960;2023-04-03T12:52:32;0.95;;;0.40;;
35245;SDS011;21379;50.962;6.960;2023-04-03T12:55:03;4.57;;;0.50;;
35245;SDS011;21379;50.962;6.960;2023-04-03T12:57:40;1.17;;;0.30;;
35245;SDS011;21379;50.962;6.960;2023-04-03T13:02:58;1.52;;;0.60;;
35245;SDS011;21379;50.962;6.960;2023-04-03T13:05:26;1.35;;;0.50;;
35245;SDS011;21379;50.962;6.960;2023-04-03T13:07:56;0.50;;;0.20;;
35245;SDS011;21379;50.962;6.960;2023-04-03T13:10:27;1.77;;;0.40;;
35245;SDS011;21379;50.962;6.960;2023-04-03T13:12:54;0.68;;;0.40;;
35245;SDS011;21379;50.962;6.960;2023-04-03T13:15:22;0.32;;;0.30;;
35245;SDS011;21379;50.962;6.960;2023-04-03T13:17:52;0.57;;;0.52;;
35245;SDS011;21379;50.962;6.960;2023-04-03T13:20:22;0.60;;;0.40;;
35245;SDS011;21379;50.962;6.960;2023-04-03T13:23:01;1.90;;;1.23;;
35245;SDS011;21379;50.962;6.960;2023-04-03T13:25:33;3.75;;;0.52;;
35245;SDS011;21379;50.962;6.960;2023-04-03T13:28:02;8.15;;;0.52;;
35245;SDS011;21379;50.962;6.960;2023-04-03T13:30:32;0.47;;;0.35;;
35245;SDS011;21379;50.962;6.960;2023-04-03T13:33:03;3.28;;;0.30;;
35245;SDS011;21379;50.962;6.960;2023-04-03T13:35:34;1.58;;;0.28;;
35245;SDS011;21379;50.962;6.960;2023-04-03T13:38:05;1.65;;;0.45;;
35245;SDS011;21379;50.962;6.960;2023-04-03T13:40:47;0.70;;;0.30;;
35245;SDS011;21379;50.962;6.960;2023-04-03T13:43:19;0.80;;;0.40;;
35245;SDS011;21379;50.962;6.960;2023-04-03T13:46:03;2.63;;;0.73;;
35245;SDS011;21379;50.962;6.960;2023-04-03T13:48:37;1.75;;;0.47;;
35245;SDS011;21379;50.962;6.960;2023-04-03T13:51:12;0.80;;;0.27;;
35245;SDS011;21379;50.962;6.960;2023-04-03T13:53:45;3.33;;;0.50;;
35245;SDS011;21379;50.962;6.960;2023-04-03T13:56:18;1.33;;;0.32;;
35245;SDS011;21379;50.962;6.960;2023-04-03T13:58:53;0.77;;;0.40;;
35245;SDS011;21379;50.962;6.960;2023-04-03T14:01:22;0.30;;;0.30;;
35245;SDS011;21379;50.962;6.960;2023-04-03T14:03:53;2.55;;;0.50;;
35245;SDS011;21379;50.962;6.960;2023-04-03T14:06:21;1.75;;;0.40;;
35245;SDS011;21379;50.962;6.960;2023-04-03T14:08:49;0.80;;;0.30;;
35245;SDS011;21379;50.962;6.960;2023-04-03T14:11:18;2.28;;;0.50;;
35245;SDS011;21379;50.962;6.960;2023-04-03T14:13:47;1.95;;;0.40;;
35245;SDS011;21379;50.962;6.960;2023-04-03T14:16:16;0.82;;;0.30;;
35245;SDS011;21379;50.962;6.960;2023-04-03T14:18:45;1.02;;;0.40;;
35245;SDS011;21379;50.962;6.960;2023-04-03T14:21:16;1.85;;;0.50;;
35245;SDS011;21379;50.962;6.960;2023-04-03T14:23:44;1.75;;;0.30;;
35245;SDS011;21379;50.962;6.960;2023-04-03T14:26:12;0.47;;;0.30;;
35245;SDS011;21379;50.962;6.960;2023-04-03T14:28:41;1.20;;;0.88;;
35245;SDS011;21379;50.962;6.960;2023-04-03T14:31:09;1.83;;;0.70;;
35245;SDS011;21379;50.962;6.960;2023-04-03T14:33:37;0.90;;;0.40;;
35245;SDS011;21379;50.962;6.960;2023-04-03T14:36:09;0.75;;;0.45;;
35245;SDS011;21379;50.962;6.960;2023-04-03T14:38:41;1.02;;;0.50;;
35245;SDS011;21379;50.962;6.960;2023-04-03T14:41:10;4.47;;;0.38;;
35245;SDS011;21379;50.962;6.960;2023-04-03T14:43:39;1.17;;;0.60;;
35245;SDS011;21379;50.962;6.960;2023-04-03T14:46:09;1.80;;;0.50;;
35245;SDS011;21379;50.962;6.960;2023-04-03T14:48:39;1.60;;;0.52;;
35245;SDS011;21379;50.962;6.960;2023-04-03T14:51:06;0.75;;;0.40;;
35245;SDS011;21379;50.962;6.960;2023-04-03T14:53:35;3.05;;;0.70;;
35245;SDS011;21379;50.962;6.960;2023-04-03T14:56:04;0.68;;;0.40;;
35245;SDS011;21379;50.962;6.960;2023-04-03T14:58:36;0.50;;;0.40;;
35245;SDS011;21379;50.962;6.960;2023-04-03T15:01:03;2.92;;;0.43;;
35245;SDS011;21379;50.962;6.960;2023-04-03T15:03:30;3.78;;;0.82;;
35245;SDS011;21379;50.962;6.960;2023-04-03T15:05:57;0.93;;;0.50;;
35245;SDS011;21379;50.962;6.960;2023-04-03T15:08:25;2.28;;;0.60;;
35245;SDS011;21379;50.962;6.960;2023-04-03T15:10:54;1.55;;;0.50;;
35245;SDS011;21379;50.962;6.960;2023-04-03T15:13:23;3.28;;;0.70;;
35245;SDS011;21379;50.962;6.960;2023-04-03T15:15:50;2.90;;;0.30;;
35245;SDS011;21379;50.962;6.960;2023-04-03T15:18:19;3.50;;;0.60;;
35245;SDS011;21379;50.962;6.960;2023-04-03T15:20:47;1.27;;;0.43;;
35245;SDS011;21379;50.962;6.960;2023-04-03T15:23:15;0.80;;;0.40;;
35245;SDS011;21379;50.962;6.960;2023-04-03T15:25:43;0.47;;;0.40;;
35245;SDS011;21379;50.962;6.960;2023-04-03T15:28:14;0.20;;;0.20;;
35245;SDS011;21379;50.962;6.960;2023-04-03T15:30:46;0.93;;;0.40;;